BO05 weather

Guglielmo Zamboni
Ozzano Emilia (BO), Emilia-Romagna, Italy

Public forecast

Using degrees Celsius for public forecast. Weather courtesy of forecast.io.

Closest aviation weather report (METAR) to Guglielmo Zamboni

Closest report is Bologna Guglielmo Marconi Airport, 11.4 nm (21.2 km) WNW. Retrieved 2020/01/28 22:20 UTC (0 seconds ago):

LIPE 282220Z 23007KT 220V280 7000 NSC 07/04 Q1008

Closest aviation forecast (TAF) to Guglielmo Zamboni

Closest forecast is Bologna Guglielmo Marconi Airport, 11.4 nm (21.2 km) WNW. Retrieved 2020/01/28 18:00 UTC (4 hours ago):

TAF LIPE 281700Z 2818/2918 28006KT 2000 BR SCT060 TEMPO 2820/2903 1200 MIFG